createdAt,value
2017-07-23T00:01:37.647Z,7.27
2017-07-23T00:04:05.156Z,7.10
2017-07-23T00:06:32.676Z,6.53
2017-07-23T00:09:00.303Z,7.07
2017-07-23T00:11:27.823Z,7.10
2017-07-23T00:13:55.326Z,6.97
2017-07-23T00:16:22.895Z,6.63
2017-07-23T00:18:50.430Z,7.43
2017-07-23T00:21:17.935Z,6.80
2017-07-23T00:23:45.499Z,7.67
2017-07-23T00:26:13.008Z,7.13
2017-07-23T00:28:40.519Z,6.43
2017-07-23T00:31:08.067Z,7.07
2017-07-23T00:33:35.574Z,6.60
2017-07-23T00:36:03.094Z,6.43
2017-07-23T00:38:30.647Z,8.53
2017-07-23T00:40:58.150Z,6.50
2017-07-23T00:43:25.651Z,6.30
2017-07-23T00:45:53.807Z,6.50
2017-07-23T00:48:21.303Z,5.20
2017-07-23T00:50:48.808Z,5.90
2017-07-23T00:53:16.366Z,5.53
2017-07-23T00:55:43.995Z,5.47
2017-07-23T00:58:11.509Z,6.90
2017-07-23T01:00:39.174Z,6.17
2017-07-23T01:03:06.672Z,5.47
2017-07-23T01:05:34.173Z,5.57
2017-07-23T01:08:01.755Z,5.77
2017-07-23T01:10:29.262Z,6.03
2017-07-23T01:12:56.792Z,5.40
2017-07-23T01:15:24.876Z,6.27
2017-07-23T01:17:52.409Z,6.20
2017-07-23T01:20:20.063Z,6.33
2017-07-23T01:22:47.647Z,5.83
2017-07-23T01:25:15.143Z,5.57
2017-07-23T01:27:42.647Z,5.17
2017-07-23T01:30:10.295Z,5.40
2017-07-23T01:32:37.799Z,4.90
2017-07-23T01:35:05.308Z,5.53
2017-07-23T01:37:32.853Z,4.57
2017-07-23T01:40:00.346Z,5.63
2017-07-23T01:42:27.853Z,5.90
2017-07-23T01:44:55.412Z,5.67
2017-07-23T01:47:22.911Z,6.30
2017-07-23T01:49:50.482Z,5.73
2017-07-23T01:52:18.034Z,5.87
2017-07-23T01:54:45.590Z,5.33
2017-07-23T01:57:13.094Z,6.37
2017-07-23T01:59:40.742Z,5.90
2017-07-23T02:02:08.279Z,5.73
2017-07-23T02:04:35.913Z,6.30
2017-07-23T02:07:03.522Z,5.73
2017-07-23T02:09:31.027Z,6.40
2017-07-23T02:11:58.526Z,5.73
2017-07-23T02:14:26.081Z,6.00
2017-07-23T02:16:53.586Z,5.50
2017-07-23T02:19:21.099Z,7.10
2017-07-23T02:21:48.710Z,5.90
2017-07-23T02:24:16.215Z,6.97
2017-07-23T02:26:43.815Z,6.80
2017-07-23T02:29:11.392Z,6.13
2017-07-23T02:31:38.946Z,6.97
2017-07-23T02:34:06.570Z,6.87
2017-07-23T02:36:34.456Z,8.10
2017-07-23T02:39:01.984Z,7.67
2017-07-23T02:41:29.591Z,8.00
2017-07-23T02:43:57.135Z,9.20
2017-07-23T02:46:24.634Z,7.50
2017-07-23T02:48:52.159Z,8.87
2017-07-23T02:51:19.855Z,11.00
2017-07-23T02:53:47.375Z,11.10
2017-07-23T02:56:14.886Z,10.03
2017-07-23T02:58:42.459Z,10.93
2017-07-23T03:01:10.000Z,9.50
2017-07-23T03:03:37.507Z,9.00
2017-07-23T03:06:05.066Z,8.93
2017-07-23T03:08:32.585Z,9.00
2017-07-23T03:11:00.203Z,8.73
2017-07-23T03:13:27.812Z,9.93
2017-07-23T03:15:55.394Z,10.40
2017-07-23T03:18:22.923Z,9.60
2017-07-23T03:20:50.528Z,9.73
2017-07-23T03:23:18.039Z,8.93
2017-07-23T03:25:45.554Z,9.33
2017-07-23T03:28:13.103Z,9.73
2017-07-23T03:30:40.621Z,8.73
2017-07-23T03:33:08.123Z,8.87
2017-07-23T03:35:35.679Z,9.03
2017-07-23T03:38:03.206Z,9.77
2017-07-23T03:40:30.712Z,9.90
2017-07-23T03:42:58.270Z,10.47
2017-07-23T03:45:26.250Z,9.47
2017-07-23T03:47:53.795Z,9.40
2017-07-23T03:50:21.368Z,10.37
2017-07-23T03:52:48.902Z,10.50
2017-07-23T03:55:16.410Z,10.77
2017-07-23T03:57:44.151Z,11.20
2017-07-23T04:00:11.674Z,13.10
2017-07-23T04:02:39.182Z,11.40
2017-07-23T04:05:06.751Z,12.00
2017-07-23T04:07:34.447Z,10.53
2017-07-23T04:10:01.951Z,10.83
2017-07-23T04:12:29.607Z,11.10
2017-07-23T04:14:57.171Z,11.43
2017-07-23T04:17:24.791Z,11.17
2017-07-23T04:19:52.562Z,11.63
2017-07-23T04:22:20.080Z,11.33
2017-07-23T04:24:47.699Z,10.90
2017-07-23T04:27:15.538Z,10.30
2017-07-23T04:29:43.078Z,9.13
2017-07-23T04:32:10.706Z,9.90
2017-07-23T04:34:38.435Z,10.90
2017-07-23T04:37:05.957Z,12.00
2017-07-23T04:39:33.467Z,13.33
2017-07-23T04:42:01.168Z,10.93
2017-07-23T04:44:28.678Z,12.40
2017-07-23T04:46:56.196Z,11.77
2017-07-23T04:49:24.026Z,12.50
2017-07-23T04:51:51.539Z,11.97
2017-07-23T04:54:19.157Z,12.57
2017-07-23T04:56:46.733Z,11.60
2017-07-23T04:59:14.250Z,10.70
2017-07-23T05:01:41.769Z,11.13
2017-07-23T05:04:09.345Z,11.23
2017-07-23T05:06:37.054Z,12.70
2017-07-23T05:09:04.570Z,12.97
2017-07-23T05:11:32.137Z,11.33
2017-07-23T05:13:59.663Z,12.20
2017-07-23T05:16:27.356Z,12.67
2017-07-23T05:18:55.175Z,14.80
2017-07-23T05:21:22.820Z,13.53
2017-07-23T05:23:50.580Z,11.80
2017-07-23T05:26:18.364Z,10.77
2017-07-23T05:28:46.008Z,9.40
2017-07-23T05:31:13.760Z,9.87
2017-07-23T05:33:41.389Z,9.10
2017-07-23T05:36:08.999Z,10.57
2017-07-23T05:38:36.656Z,9.50
2017-07-23T05:41:04.410Z,10.20
2017-07-23T05:43:31.915Z,9.73
2017-07-23T05:45:59.658Z,10.07
2017-07-23T05:48:27.319Z,10.13
2017-07-23T05:50:54.872Z,9.60
2017-07-23T05:53:22.539Z,8.67
2017-07-23T05:55:50.305Z,9.13
2017-07-23T05:58:17.876Z,8.90
2017-07-23T06:00:45.411Z,10.10
2017-07-23T06:03:13.032Z,9.63
2017-07-23T06:05:40.535Z,8.37
2017-07-23T06:08:08.127Z,9.73
2017-07-23T06:10:35.694Z,9.10
2017-07-23T06:13:03.330Z,8.37
2017-07-23T06:15:31.958Z,6.80
2017-07-23T06:18:00.370Z,6.50
2017-07-23T06:20:27.784Z,6.10
2017-07-23T06:22:55.290Z,7.40
2017-07-23T06:25:22.886Z,6.20
2017-07-23T06:27:50.439Z,6.60
2017-07-23T06:30:17.941Z,6.87
2017-07-23T06:32:45.486Z,5.30
2017-07-23T06:35:12.991Z,5.80
2017-07-23T06:37:40.338Z,5.40
2017-07-23T06:40:07.987Z,4.20
2017-07-23T06:42:35.484Z,5.30
2017-07-23T06:45:03.883Z,5.17
2017-07-23T06:47:32.151Z,5.87
2017-07-23T06:49:59.671Z,6.33
2017-07-23T06:52:27.563Z,5.97
2017-07-23T06:54:55.162Z,5.80
2017-07-23T06:57:22.669Z,5.73
2017-07-23T06:59:50.293Z,5.70
2017-07-23T07:02:17.800Z,6.30
2017-07-23T07:04:45.302Z,6.20
2017-07-23T07:07:12.844Z,4.27
2017-07-23T07:09:40.643Z,5.17
2017-07-23T07:12:08.139Z,5.10
2017-07-23T07:14:35.683Z,5.33
2017-07-23T07:17:03.261Z,5.27
2017-07-23T07:19:30.523Z,4.33
2017-07-23T07:21:57.923Z,4.40
2017-07-23T07:24:25.484Z,4.73
2017-07-23T07:26:53.003Z,5.53
2017-07-23T07:29:20.574Z,4.10
2017-07-23T07:31:48.176Z,4.50
2017-07-23T07:34:15.682Z,4.80
2017-07-23T07:36:43.315Z,4.27
2017-07-23T07:39:10.830Z,4.33
2017-07-23T07:41:38.343Z,4.23
2017-07-23T07:44:05.918Z,4.37
2017-07-23T07:46:33.432Z,4.83
2017-07-23T07:49:00.932Z,4.77
2017-07-23T07:51:28.506Z,4.90
2017-07-23T07:53:56.015Z,4.97
2017-07-23T07:56:23.530Z,5.43
2017-07-23T07:58:51.127Z,4.80
2017-07-23T08:01:18.699Z,4.47
2017-07-23T08:03:46.271Z,5.70
2017-07-23T08:06:13.823Z,5.00
2017-07-23T08:08:41.107Z,5.10
2017-07-23T08:11:08.907Z,4.47
2017-07-23T08:13:36.496Z,4.93
2017-07-23T08:16:04.274Z,5.17
2017-07-23T08:18:31.776Z,4.80
2017-07-23T08:20:59.259Z,5.67
2017-07-23T08:23:26.771Z,4.40
2017-07-23T08:25:54.290Z,4.30
2017-07-23T08:28:21.844Z,4.03
2017-07-23T08:30:49.354Z,3.33
2017-07-23T08:33:16.902Z,3.47
2017-07-23T08:35:44.467Z,3.50
2017-07-23T08:38:11.999Z,3.60
2017-07-23T08:40:39.512Z,3.27
2017-07-23T08:43:07.974Z,3.00
2017-07-23T08:45:35.519Z,3.30
2017-07-23T08:48:03.027Z,2.73
2017-07-23T08:50:30.597Z,3.03
2017-07-23T08:52:58.102Z,3.03
2017-07-23T08:55:25.599Z,3.93
2017-07-23T08:57:53.167Z,2.93
2017-07-23T09:00:21.335Z,3.57
2017-07-23T09:02:48.847Z,3.20
2017-07-23T09:05:16.395Z,3.43
2017-07-23T09:07:43.923Z,3.13
2017-07-23T09:10:11.439Z,3.10
2017-07-23T09:12:39.117Z,2.87
2017-07-23T09:15:06.641Z,3.40
2017-07-23T09:17:34.172Z,3.30
2017-07-23T09:20:01.797Z,3.40
2017-07-23T09:22:29.375Z,2.70
2017-07-23T09:24:56.883Z,3.60
2017-07-23T09:27:24.435Z,3.30
2017-07-23T09:29:51.960Z,3.00
2017-07-23T09:32:19.500Z,3.23
2017-07-23T09:34:47.067Z,3.10
2017-07-23T09:37:14.571Z,2.83
2017-07-23T09:39:42.075Z,3.37
2017-07-23T09:42:09.651Z,3.83
2017-07-23T09:44:37.161Z,2.63
2017-07-23T09:47:04.716Z,2.63
2017-07-23T09:49:32.274Z,3.03
2017-07-23T09:51:59.552Z,3.23
2017-07-23T09:54:27.104Z,3.60
2017-07-23T09:56:54.662Z,3.20
2017-07-23T09:59:22.212Z,3.53
2017-07-23T10:01:49.707Z,3.60
2017-07-23T10:04:17.314Z,3.77
2017-07-23T10:06:44.839Z,3.00
2017-07-23T10:09:12.348Z,3.27
2017-07-23T10:11:39.920Z,3.30
2017-07-23T10:14:07.432Z,2.93
2017-07-23T10:16:35.042Z,3.20
2017-07-23T10:19:02.611Z,2.80
2017-07-23T10:21:30.116Z,3.53
2017-07-23T10:23:57.614Z,3.30
2017-07-23T10:26:25.364Z,3.47
2017-07-23T10:28:52.868Z,3.40
2017-07-23T10:31:20.422Z,2.90
2017-07-23T10:33:47.992Z,3.07
2017-07-23T10:36:15.563Z,3.90
2017-07-23T10:38:43.089Z,3.90
2017-07-23T10:41:10.651Z,2.60
2017-07-23T10:43:38.218Z,4.20
2017-07-23T10:46:05.747Z,2.87
2017-07-23T10:48:33.315Z,2.80
2017-07-23T10:51:00.848Z,3.30
2017-07-23T10:53:28.307Z,3.30
2017-07-23T10:55:55.855Z,3.33
2017-07-23T10:58:23.359Z,3.20
2017-07-23T11:00:50.951Z,2.80
2017-07-23T11:03:18.499Z,3.13
2017-07-23T11:05:46.020Z,2.97
2017-07-23T11:08:13.539Z,3.03
2017-07-23T11:10:41.179Z,3.87
2017-07-23T11:13:08.695Z,3.50
2017-07-23T11:15:36.225Z,2.97
2017-07-23T11:18:03.790Z,3.43
2017-07-23T11:20:31.293Z,2.97
2017-07-23T11:22:58.912Z,3.60
2017-07-23T11:25:26.484Z,3.43
2017-07-23T11:27:54.732Z,3.20
2017-07-23T11:30:22.236Z,3.07
2017-07-23T11:32:49.893Z,3.00
2017-07-23T11:35:17.398Z,3.17
2017-07-23T11:37:57.785Z,3.17
2017-07-23T11:40:25.406Z,2.83
2017-07-23T11:42:53.052Z,3.40
2017-07-23T11:45:20.603Z,3.47
2017-07-23T11:47:48.175Z,2.83
2017-07-23T11:50:15.687Z,3.30
2017-07-23T11:52:43.239Z,3.43
2017-07-23T11:55:10.555Z,4.10
2017-07-23T11:57:38.083Z,3.00
2017-07-23T12:00:05.640Z,3.00
2017-07-23T12:02:33.176Z,2.63
2017-07-23T12:05:00.807Z,2.97
2017-07-23T12:07:28.380Z,3.50
2017-07-23T12:09:55.887Z,2.43
2017-07-23T12:12:23.405Z,3.10
2017-07-23T12:14:50.967Z,2.73
2017-07-23T12:17:18.544Z,3.70
2017-07-23T12:19:46.048Z,3.57
2017-07-23T12:22:13.592Z,2.87
2017-07-23T12:24:41.095Z,3.60
2017-07-23T12:27:08.383Z,2.73
2017-07-23T12:29:35.932Z,3.47
2017-07-23T12:32:03.845Z,3.57
2017-07-23T12:34:31.348Z,3.27
2017-07-23T12:36:58.958Z,3.83
2017-07-23T12:39:26.507Z,4.90
2017-07-23T12:41:54.031Z,2.90
2017-07-23T12:44:21.595Z,3.47
2017-07-23T12:46:49.203Z,3.73
2017-07-23T12:49:16.715Z,3.67
2017-07-23T12:51:44.263Z,3.00
2017-07-23T12:54:11.763Z,3.43
2017-07-23T12:56:39.263Z,3.43
2017-07-23T12:59:06.818Z,3.00
2017-07-23T13:01:34.399Z,3.90
2017-07-23T13:04:01.917Z,3.00
2017-07-23T13:06:29.473Z,3.20
2017-07-23T13:08:56.975Z,3.73
2017-07-23T13:11:24.617Z,3.40
2017-07-23T13:13:53.057Z,2.70
2017-07-23T13:16:21.263Z,3.10
2017-07-23T13:18:48.856Z,3.43
2017-07-23T13:21:16.551Z,2.93
2017-07-23T13:23:44.065Z,3.20
2017-07-23T13:26:11.605Z,2.73
2017-07-23T13:28:39.274Z,3.00
2017-07-23T13:31:06.788Z,3.53
2017-07-23T13:33:34.324Z,2.50
2017-07-23T13:36:01.886Z,5.80
2017-07-23T13:38:29.394Z,2.90
2017-07-23T13:40:57.006Z,3.47
2017-07-23T13:43:24.587Z,4.27
2017-07-23T13:45:52.108Z,3.10
2017-07-23T13:48:19.808Z,2.80
2017-07-23T13:50:47.183Z,2.50
2017-07-23T13:53:14.840Z,3.00
2017-07-23T13:55:42.389Z,3.90
2017-07-23T13:58:10.095Z,3.73
2017-07-23T14:00:37.962Z,2.97
2017-07-23T14:03:05.488Z,3.07
2017-07-23T14:05:33.045Z,2.70
2017-07-23T14:08:00.669Z,3.33
2017-07-23T14:10:28.324Z,3.33
2017-07-23T14:12:56.021Z,3.10
2017-07-23T14:15:23.580Z,3.20
2017-07-23T14:17:51.087Z,3.50
2017-07-23T14:20:18.631Z,3.20
2017-07-23T14:22:46.173Z,3.50
2017-07-23T14:25:13.730Z,3.07
2017-07-23T14:27:41.312Z,3.40
2017-07-23T14:30:08.742Z,3.07
2017-07-23T14:32:36.350Z,3.53
2017-07-23T14:35:04.077Z,4.70
2017-07-23T14:37:31.611Z,4.87
2017-07-23T14:39:59.164Z,4.80
2017-07-23T14:42:26.745Z,4.10
2017-07-23T14:44:54.273Z,3.60
2017-07-23T14:47:21.832Z,3.17
2017-07-23T14:49:49.442Z,4.60
2017-07-23T14:52:16.949Z,3.47
2017-07-23T14:54:44.473Z,3.50
2017-07-23T14:57:12.064Z,3.93
2017-07-23T14:59:39.592Z,3.73
2017-07-23T15:02:08.099Z,3.53
2017-07-23T15:04:35.878Z,3.50
2017-07-23T15:07:03.412Z,4.60
2017-07-23T15:09:31.326Z,3.63
2017-07-23T15:11:59.115Z,4.30
2017-07-23T15:14:26.699Z,3.97
2017-07-23T15:16:54.213Z,4.80
2017-07-23T15:19:22.003Z,4.47
2017-07-23T15:21:49.731Z,3.60
2017-07-23T15:24:17.278Z,4.00
2017-07-23T15:26:45.284Z,4.37
2017-07-23T15:29:13.116Z,4.00
2017-07-23T15:31:40.967Z,4.30
2017-07-23T15:34:08.754Z,4.10
2017-07-23T15:36:36.628Z,4.93
2017-07-23T15:39:04.467Z,3.83
2017-07-23T15:41:32.118Z,4.10
2017-07-23T15:43:59.796Z,3.83
2017-07-23T15:46:27.601Z,3.73
2017-07-23T15:48:55.615Z,3.60
2017-07-23T15:51:23.484Z,3.60
2017-07-23T15:53:51.007Z,4.20
2017-07-23T15:56:18.800Z,4.73
2017-07-23T15:58:46.583Z,3.80
2017-07-23T16:01:14.444Z,3.73
2017-07-23T16:03:42.263Z,4.40
2017-07-23T16:06:09.953Z,3.97
2017-07-23T16:08:37.707Z,4.03
2017-07-23T16:11:05.503Z,3.77
2017-07-23T16:13:33.428Z,3.53
2017-07-23T16:16:01.675Z,3.53
2017-07-23T16:18:29.580Z,3.70
2017-07-23T16:20:57.428Z,3.60
2017-07-23T16:23:26.144Z,3.60
2017-07-23T16:25:53.749Z,3.40
2017-07-23T16:28:22.248Z,3.90
2017-07-23T16:30:49.999Z,3.37
2017-07-23T16:33:17.459Z,4.37
2017-07-23T16:35:45.103Z,4.13
2017-07-23T16:38:12.872Z,4.10
2017-07-23T16:40:41.224Z,3.83
2017-07-23T16:43:09.488Z,3.23
2017-07-23T16:45:37.208Z,3.80
2017-07-23T16:48:04.817Z,3.67
2017-07-23T16:50:32.395Z,3.63
2017-07-23T16:53:00.087Z,3.87
2017-07-23T16:55:28.065Z,3.63
2017-07-23T16:57:55.563Z,3.40
2017-07-23T17:00:23.077Z,3.90
2017-07-23T17:02:51.601Z,3.00
2017-07-23T17:05:19.315Z,3.50
2017-07-23T17:07:46.882Z,3.80
2017-07-23T17:10:14.807Z,3.63
2017-07-23T17:12:42.528Z,3.93
2017-07-23T17:15:10.038Z,3.63
2017-07-23T17:17:37.666Z,4.07
2017-07-23T17:20:05.380Z,3.23
2017-07-23T17:22:33.266Z,3.40
2017-07-23T17:25:00.890Z,3.50
2017-07-23T17:27:28.614Z,3.93
2017-07-23T17:29:56.397Z,3.80
2017-07-23T17:32:24.064Z,3.90
2017-07-23T17:34:51.668Z,3.67
2017-07-23T17:37:19.263Z,3.70
2017-07-23T17:39:47.281Z,3.50
2017-07-23T17:42:15.834Z,3.63
2017-07-23T17:44:43.599Z,4.10
2017-07-23T17:47:11.255Z,3.20
2017-07-23T17:49:38.984Z,3.90
2017-07-23T17:52:07.283Z,3.93
2017-07-23T17:54:35.205Z,3.40
2017-07-23T17:57:02.768Z,3.47
2017-07-23T17:59:30.424Z,3.03
2017-07-23T18:01:57.966Z,3.60
2017-07-23T18:04:26.781Z,3.10
2017-07-23T18:06:54.487Z,4.20
2017-07-23T18:09:22.803Z,3.40
2017-07-23T18:11:50.514Z,3.50
2017-07-23T18:14:18.020Z,3.60
2017-07-23T18:16:45.843Z,2.90
2017-07-23T18:19:13.344Z,2.90
2017-07-23T18:21:40.845Z,2.70
2017-07-23T18:24:08.565Z,2.77
2017-07-23T18:26:36.109Z,2.97
2017-07-23T18:29:03.616Z,2.70
2017-07-23T18:31:31.195Z,2.60
2017-07-23T18:33:58.719Z,3.60
2017-07-23T18:36:26.255Z,3.60
2017-07-23T18:38:54.552Z,2.93
2017-07-23T18:41:22.082Z,3.50
2017-07-23T18:43:49.603Z,4.00
2017-07-23T18:46:17.323Z,4.00
2017-07-23T18:48:44.814Z,4.07
2017-07-23T18:51:12.584Z,4.50
2017-07-23T18:53:40.238Z,3.10
2017-07-23T18:56:07.779Z,4.47
2017-07-23T18:58:35.347Z,3.30
2017-07-23T19:01:02.934Z,3.80
2017-07-23T19:03:30.491Z,3.13
2017-07-23T19:05:57.993Z,3.00
2017-07-23T19:08:25.905Z,3.23
2017-07-23T19:10:53.455Z,3.17
2017-07-23T19:13:21.102Z,3.40
2017-07-23T19:15:48.667Z,3.80
2017-07-23T19:18:16.196Z,4.50
2017-07-23T19:20:43.699Z,3.87
2017-07-23T19:23:11.316Z,3.00
2017-07-23T19:25:38.827Z,4.10
2017-07-23T19:28:07.045Z,3.27
2017-07-23T19:30:34.602Z,2.90
2017-07-23T19:33:02.127Z,3.73
2017-07-23T19:35:29.763Z,3.70
2017-07-23T19:37:57.319Z,3.60
2017-07-23T19:40:24.853Z,3.13
2017-07-23T19:42:52.364Z,4.13
2017-07-23T19:45:19.921Z,3.23
2017-07-23T19:47:47.684Z,4.30
2017-07-23T19:50:15.414Z,4.33
2017-07-23T19:52:43.046Z,4.20
2017-07-23T19:55:10.335Z,3.63
2017-07-23T19:57:37.158Z,3.20
2017-07-23T20:00:04.796Z,3.30
2017-07-23T20:02:32.298Z,4.70
2017-07-23T20:04:59.803Z,3.40
2017-07-23T20:07:27.355Z,3.37
2017-07-23T20:09:54.224Z,3.70
2017-07-23T20:12:21.729Z,3.50
2017-07-23T20:14:49.479Z,4.83
2017-07-23T20:17:16.983Z,3.40
2017-07-23T20:19:44.807Z,3.50
2017-07-23T20:22:12.397Z,3.00
2017-07-23T20:24:39.944Z,4.53
2017-07-23T20:27:07.842Z,5.03
2017-07-23T20:29:35.451Z,3.73
2017-07-23T20:32:02.987Z,3.40
2017-07-23T20:34:30.494Z,3.17
2017-07-23T20:36:58.059Z,3.40
2017-07-23T20:39:25.562Z,3.90
2017-07-23T20:41:53.559Z,3.33
2017-07-23T20:44:20.612Z,3.17
2017-07-23T20:46:48.231Z,3.87
2017-07-23T20:49:15.955Z,4.53
2017-07-23T20:51:43.506Z,3.50
2017-07-23T20:54:11.011Z,3.67
2017-07-23T20:56:38.307Z,3.70
2017-07-23T20:59:06.201Z,5.70
2017-07-23T21:01:33.772Z,4.60
2017-07-23T21:04:01.665Z,4.87
2017-07-23T21:06:29.474Z,5.20
2017-07-23T21:08:57.099Z,4.13
2017-07-23T21:11:25.352Z,5.10
2017-07-23T21:13:53.083Z,4.60
2017-07-23T21:16:20.826Z,4.03
2017-07-23T21:18:48.362Z,5.00
2017-07-23T21:21:15.931Z,4.53
2017-07-23T21:23:43.447Z,3.90
2017-07-23T21:26:11.067Z,3.60
2017-07-23T21:28:38.610Z,4.00
2017-07-23T21:31:06.114Z,4.40
2017-07-23T21:33:33.631Z,5.00
2017-07-23T21:36:01.234Z,4.37
2017-07-23T21:38:28.769Z,5.73
2017-07-23T21:40:56.309Z,4.70
2017-07-23T21:43:23.884Z,4.80
2017-07-23T21:45:51.391Z,4.60
2017-07-23T21:48:18.897Z,4.27
2017-07-23T21:50:46.566Z,4.50
2017-07-23T21:53:14.072Z,4.93
2017-07-23T21:55:41.570Z,4.23
2017-07-23T21:58:08.921Z,5.90
2017-07-23T22:00:36.414Z,4.40
2017-07-23T22:03:03.923Z,4.33
2017-07-23T22:05:30.885Z,5.40
2017-07-23T22:07:58.392Z,4.43
2017-07-23T22:10:25.900Z,3.63
2017-07-23T22:12:53.442Z,4.90
2017-07-23T22:15:20.953Z,4.20
2017-07-23T22:17:48.639Z,4.33
2017-07-23T22:20:16.879Z,4.67
2017-07-23T22:22:44.397Z,5.17
2017-07-23T22:25:11.899Z,4.87
2017-07-23T22:27:39.698Z,4.40
2017-07-23T22:30:07.299Z,4.53
2017-07-23T22:32:34.799Z,3.97
2017-07-23T22:35:02.398Z,4.77
2017-07-23T22:37:29.895Z,4.57
2017-07-23T22:39:57.393Z,4.50
2017-07-23T22:42:24.974Z,4.30
2017-07-23T22:44:52.504Z,4.37
2017-07-23T22:47:20.095Z,4.80
2017-07-23T22:49:47.647Z,4.07
2017-07-23T22:52:15.147Z,4.90
2017-07-23T22:54:42.651Z,4.57
2017-07-23T22:57:10.213Z,4.30
2017-07-23T22:59:37.486Z,4.63
2017-07-23T23:02:04.990Z,3.90
2017-07-23T23:04:32.535Z,5.10
2017-07-23T23:07:00.035Z,4.20
2017-07-23T23:09:27.590Z,4.97
2017-07-23T23:11:55.148Z,4.40
2017-07-23T23:14:22.666Z,4.40
2017-07-23T23:16:50.174Z,4.60
2017-07-23T23:19:17.817Z,4.53
2017-07-23T23:21:45.332Z,5.07
2017-07-23T23:24:12.859Z,4.50
2017-07-23T23:26:40.464Z,4.63
2017-07-23T23:29:07.963Z,4.10
2017-07-23T23:31:35.496Z,5.07
2017-07-23T23:34:03.799Z,5.70
2017-07-23T23:36:31.295Z,5.17
2017-07-23T23:38:58.803Z,4.67
2017-07-23T23:41:26.352Z,4.57
2017-07-23T23:43:53.854Z,4.27
2017-07-23T23:46:21.473Z,4.70
2017-07-23T23:48:49.051Z,4.40
2017-07-23T23:51:16.580Z,5.00
2017-07-23T23:53:44.083Z,4.13
2017-07-23T23:56:11.649Z,4.57
2017-07-23T23:58:39.195Z,4.60
